Time;durP1;ratioP1;P1;durP2;ratioP2;P2;SDS_P1;SDS_P2;PMS_P1;PMS_P2;Temp;Humidity;BMP_temperature;BMP_pressure;BME280_temperature;BME280_humidity;BME280_pressure;Samples;Min_cycle;Max_cycle;Signal;HPM_P1;HPM_P2
2021/12/25 00:01:22;;;;;;;;;;;27.40;99.90;;;;;;5055283;28;19916;-76
2021/12/25 00:03:50;;;;;;;;;;;27.40;99.90;;;;;;5055113;28;19909;-76
2021/12/25 00:06:17;;;;;;;;;;;27.50;99.90;;;;;;5055071;28;20356;-76
2021/12/25 00:08:44;;;;;;;;;;;27.50;99.90;;;;;;5054907;28;20377;-77
2021/12/25 00:11:11;;;;;;;;;;;27.50;99.90;;;;;;5054998;28;19921;-76
2021/12/25 00:13:38;;;;;;;;;;;27.50;99.90;;;;;;5055249;28;20275;-76
2021/12/25 00:16:05;;;;;;;;;;;27.40;99.90;;;;;;5054737;28;19956;-77
2021/12/25 00:18:33;;;;;;;;;;;27.50;99.90;;;;;;5055058;28;19909;-77
2021/12/25 00:20:59;;;;;;;;;;;27.60;99.90;;;;;;5054929;28;19917;-77
2021/12/25 00:23:26;;;;;;;;;;;27.60;99.90;;;;;;5054681;28;19920;-76
2021/12/25 00:26:01;;;;;;;;;;;27.50;99.90;;;;;;5054716;28;19916;-77
2021/12/25 00:31:10;;;;;;;;;;;27.70;99.90;;;;;;5054708;28;19913;-77
2021/12/25 00:36:15;;;;;;;;;;;28.20;99.90;;;;;;5054731;28;20377;-76
2021/12/25 00:38:42;;;;;;;;;;;28.20;99.90;;;;;;5054525;28;19909;-76
2021/12/25 00:41:10;;;;;;;;;;;28.40;99.90;;;;;;5054638;28;19909;-74
2021/12/25 00:43:36;;;;;;;;;;;28.50;99.90;;;;;;5054480;28;19992;-74
2021/12/25 00:46:03;;;;;;;;;;;28.70;99.90;;;;;;5054121;28;19999;-74
2021/12/25 00:48:30;;;;;;;;;;;29.10;99.90;;;;;;5054382;28;20018;-75
2021/12/25 00:50:57;;;;;;;;;;;29.30;99.90;;;;;;5054503;28;19913;-77
2021/12/25 00:53:24;;;;;;;;;;;29.50;99.90;;;;;;5053989;28;20428;-76
2021/12/25 00:55:50;;;;;;;;;;;30.00;99.90;;;;;;5054053;28;19970;-76
2021/12/25 00:58:17;;;;;;;;;;;30.10;99.90;;;;;;5054319;28;19913;-77
2021/12/25 01:00:44;;;;;;;;;;;30.40;99.90;;;;;;5054133;28;19995;-76
2021/12/25 01:03:11;;;;;;;;;;;30.40;99.90;;;;;;5054346;28;20351;-75
2021/12/25 01:05:38;;;;;;;;;;;30.70;99.90;;;;;;5086196;28;19908;-76
2021/12/25 01:08:05;;;;;;;;;;;30.20;99.90;;;;;;5053666;28;19963;-76
2021/12/25 01:10:33;;;;;;;;;;;30.20;99.90;;;;;;5053919;28;20291;-77
2021/12/25 01:13:23;;;;;;;;;;;30.30;99.90;;;;;;5053846;28;19916;-76
2021/12/25 01:23:58;;;;;;;;;;;30.30;99.90;;;;;;5053923;28;19971;-76
2021/12/25 01:29:17;;;;;;;;;;;30.60;99.90;;;;;;5053620;28;19959;-73
2021/12/25 01:34:58;;;;;;;;;;;30.70;99.90;;;;;;5053512;28;20059;-75
2021/12/25 01:40:24;;;;;;;;;;;30.70;99.90;;;;;;5053608;28;20409;-74
2021/12/25 01:48:14;;;;;;;;;;;30.50;99.90;;;;;;5053339;28;20283;-74
2021/12/25 01:50:41;;;;;;;;;;;30.30;99.90;;;;;;5053242;28;20054;-72
2021/12/25 01:53:08;;;;;;;;;;;30.00;99.90;;;;;;5053011;28;19972;-72
2021/12/25 01:55:34;;;;;;;;;;;29.70;99.90;;;;;;5053147;28;19958;-72
2021/12/25 01:58:02;;;;;;;;;;;29.60;99.90;;;;;;5052911;28;20071;-73
2021/12/25 02:00:40;;;;;;;;;;;29.40;99.90;;;;;;5053047;28;20263;-74
2021/12/25 02:03:08;;;;;;;;;;;29.20;99.90;;;;;;5053069;28;19916;-73
2021/12/25 02:05:35;;;;;;;;;;;29.10;99.90;;;;;;5052946;28;19951;-73
2021/12/25 02:08:02;;;;;;;;;;;28.90;99.90;;;;;;5052529;28;19909;-73
2021/12/25 02:10:29;;;;;;;;;;;28.70;99.90;;;;;;5052780;28;19921;-72
2021/12/25 02:12:56;;;;;;;;;;;28.60;99.90;;;;;;5052778;28;19917;-73
2021/12/25 02:15:25;;;;;;;;;;;28.80;99.90;;;;;;5052992;28;19915;-72
2021/12/25 02:20:24;;;;;;;;;;;28.70;99.90;;;;;;5052596;28;20355;-73
2021/12/25 02:22:54;;;;;;;;;;;28.80;99.90;;;;;;5052726;28;20325;-71
2021/12/25 02:25:22;;;;;;;;;;;28.70;99.90;;;;;;5052689;28;19909;-72
2021/12/25 02:27:49;;;;;;;;;;;28.60;99.90;;;;;;5052527;28;19909;-71
2021/12/25 02:30:15;;;;;;;;;;;28.60;99.90;;;;;;5052383;28;19916;-71
2021/12/25 02:32:45;;;;;;;;;;;28.50;99.90;;;;;;5052086;28;19960;-71
2021/12/25 02:35:13;;;;;;;;;;;28.60;99.90;;;;;;5052631;28;20026;-71
2021/12/25 02:37:40;;;;;;;;;;;28.60;99.90;;;;;;5052283;28;19962;-72
2021/12/25 02:40:08;;;;;;;;;;;28.50;99.90;;;;;;5052221;28;20007;-72
2021/12/25 02:42:35;;;;;;;;;;;28.60;99.90;;;;;;5052383;28;19913;-73
2021/12/25 02:45:03;;;;;;;;;;;28.60;99.90;;;;;;5052418;28;19955;-71
2021/12/25 02:47:31;;;;;;;;;;;28.50;99.90;;;;;;5052687;28;19909;-72
2021/12/25 02:49:57;;;;;;;;;;;28.30;99.90;;;;;;5052407;28;19909;-71
2021/12/25 02:52:26;;;;;;;;;;;28.20;99.90;;;;;;5052190;28;20037;-71
2021/12/25 02:54:52;;;;;;;;;;;28.40;99.90;;;;;;5052436;28;20066;-72
2021/12/25 02:57:19;;;;;;;;;;;28.20;99.90;;;;;;5052413;28;19909;-71
2021/12/25 02:59:46;;;;;;;;;;;28.10;99.90;;;;;;5052450;28;19909;-72
2021/12/25 03:02:14;;;;;;;;;;;28.00;99.90;;;;;;5052371;28;19931;-72
2021/12/25 03:04:42;;;;;;;;;;;28.10;99.90;;;;;;5052393;28;19909;-74
2021/12/25 03:07:10;;;;;;;;;;;28.10;99.90;;;;;;5052193;28;20422;-71
2021/12/25 03:09:37;;;;;;;;;;;28.20;99.90;;;;;;5052096;28;20268;-71
2021/12/25 03:12:06;;;;;;;;;;;28.20;99.90;;;;;;5052190;28;19939;-72
2021/12/25 03:14:39;;;;;;;;;;;28.10;99.90;;;;;;5052449;28;19913;-73
2021/12/25 03:17:06;;;;;;;;;;;28.10;99.90;;;;;;5052381;28;19908;-71
2021/12/25 03:19:33;;;;;;;;;;;28.30;99.90;;;;;;5052420;28;19955;-72
2021/12/25 03:22:01;;;;;;;;;;;28.30;99.90;;;;;;5051919;28;20004;-71
2021/12/25 03:24:28;;;;;;;;;;;28.40;99.90;;;;;;5052170;28;20024;-72
2021/12/25 03:26:56;;;;;;;;;;;28.40;99.90;;;;;;5052149;28;19992;-71
2021/12/25 03:29:27;;;;;;;;;;;28.30;99.90;;;;;;5052013;28;19916;-71
2021/12/25 03:31:54;;;;;;;;;;;28.20;99.90;;;;;;5051864;28;19931;-71
2021/12/25 03:34:20;;;;;;;;;;;28.20;99.90;;;;;;5052069;28;19963;-71
2021/12/25 03:36:47;;;;;;;;;;;28.30;99.90;;;;;;5051811;28;19908;-71
2021/12/25 03:39:14;;;;;;;;;;;28.20;99.90;;;;;;5052056;28;19909;-71
2021/12/25 03:41:41;;;;;;;;;;;28.00;99.90;;;;;;5052017;28;19909;-71
2021/12/25 03:44:08;;;;;;;;;;;27.80;99.90;;;;;;5055262;28;19908;-70
2021/12/25 03:46:37;;;;;;;;;;;27.70;99.90;;;;;;5055666;28;20363;-72
2021/12/25 03:49:25;;;;;;;;;;;27.80;99.90;;;;;;5055648;28;19916;-71
2021/12/25 03:57:39;;;;;;;;;;;27.90;99.90;;;;;;5055707;28;19915;-71
2021/12/25 04:00:07;;;;;;;;;;;27.70;99.90;;;;;;5055295;28;19913;-71
2021/12/25 04:02:50;;;;;;;;;;;27.70;99.90;;;;;;5055604;28;19915;-71
2021/12/25 04:05:19;;;;;;;;;;;27.70;99.90;;;;;;5055344;28;19912;-70
2021/12/25 04:08:04;;;;;;;;;;;27.80;99.90;;;;;;5055313;28;20003;-71
2021/12/25 04:10:34;;;;;;;;;;;27.90;99.90;;;;;;5055224;28;19920;-70
2021/12/25 04:13:02;;;;;;;;;;;27.80;99.90;;;;;;5055154;28;19917;-72
2021/12/25 04:15:29;;;;;;;;;;;27.80;99.90;;;;;;5055239;28;20417;-71
2021/12/25 04:17:55;;;;;;;;;;;27.60;99.90;;;;;;5054917;28;19932;-70
2021/12/25 04:20:22;;;;;;;;;;;27.50;99.90;;;;;;5055121;28;19948;-71
2021/12/25 04:22:58;;;;;;;;;;;27.50;99.90;;;;;;5054931;28;20007;-72
2021/12/25 04:25:29;;;;;;;;;;;27.50;99.90;;;;;;5087283;28;19909;-71
2021/12/25 04:28:01;;;;;;;;;;;27.60;99.90;;;;;;5054659;28;19909;-70
2021/12/25 04:30:40;;;;;;;;;;;27.70;99.90;;;;;;5054791;28;19909;-71
2021/12/25 05:05:45;;;;;;;;;;;27.50;99.90;;;;;;5054080;28;19917;-71
2021/12/25 05:08:12;;;;;;;;;;;27.20;99.90;;;;;;5054110;28;19913;-71
2021/12/25 05:10:38;;;;;;;;;;;27.30;99.90;;;;;;5053819;28;19943;-70
2021/12/25 05:13:05;;;;;;;;;;;27.20;99.90;;;;;;5053938;28;19917;-71
2021/12/25 05:15:32;;;;;;;;;;;27.10;99.90;;;;;;5053981;28;19940;-72
2021/12/25 05:17:58;;;;;;;;;;;27.20;99.90;;;;;;5053660;28;19915;-70
2021/12/25 05:20:25;;;;;;;;;;;27.10;99.90;;;;;;5054050;28;19915;-71
2021/12/25 05:22:52;;;;;;;;;;;27.00;99.90;;;;;;5053706;28;19970;-71
2021/12/25 05:25:19;;;;;;;;;;;27.10;99.90;;;;;;5053759;28;19912;-70
2021/12/25 05:27:46;;;;;;;;;;;27.10;99.90;;;;;;5053729;28;19946;-71
2021/12/25 05:30:13;;;;;;;;;;;27.10;99.90;;;;;;5053583;28;19909;-70
2021/12/25 05:32:40;;;;;;;;;;;27.00;99.90;;;;;;5053542;28;20372;-71
2021/12/25 05:35:06;;;;;;;;;;;27.00;99.90;;;;;;5053680;28;19958;-71
2021/12/25 05:37:36;;;;;;;;;;;26.90;99.90;;;;;;5053441;28;20241;-71
2021/12/25 05:40:05;;;;;;;;;;;26.90;99.90;;;;;;5053379;28;19913;-71
2021/12/25 05:42:32;;;;;;;;;;;26.80;99.90;;;;;;5053446;28;20252;-71
2021/12/25 05:44:59;;;;;;;;;;;26.60;99.90;;;;;;5053617;28;19908;-71
2021/12/25 05:47:26;;;;;;;;;;;26.70;99.90;;;;;;5053382;28;19963;-72
2021/12/25 05:49:53;;;;;;;;;;;26.70;99.90;;;;;;5053125;28;20062;-71
2021/12/25 05:52:20;;;;;;;;;;;26.70;99.90;;;;;;5053071;28;19913;-70
2021/12/25 05:54:46;;;;;;;;;;;26.80;99.90;;;;;;5053289;28;19917;-71
2021/12/25 05:57:13;;;;;;;;;;;26.70;99.90;;;;;;5053226;28;20307;-71
2021/12/25 05:59:42;;;;;;;;;;;26.70;99.90;;;;;;5053197;28;19976;-71
2021/12/25 06:02:10;;;;;;;;;;;26.50;99.90;;;;;;5052954;28;20279;-73
2021/12/25 06:04:38;;;;;;;;;;;26.40;99.90;;;;;;5053138;28;19916;-71
2021/12/25 06:07:05;;;;;;;;;;;26.30;99.90;;;;;;5052807;28;19980;-70
2021/12/25 06:09:31;;;;;;;;;;;26.20;99.90;;;;;;5052911;28;19909;-71
2021/12/25 06:11:58;;;;;;;;;;;26.10;99.90;;;;;;5052702;28;20391;-71
2021/12/25 06:14:25;;;;;;;;;;;26.20;99.90;;;;;;5053015;28;20360;-70
2021/12/25 06:16:51;;;;;;;;;;;26.10;99.90;;;;;;5052996;28;19908;-70
2021/12/25 06:19:18;;;;;;;;;;;26.10;99.90;;;;;;5052802;28;19909;-70
2021/12/25 06:21:45;;;;;;;;;;;26.00;99.90;;;;;;5052780;28;20275;-70
2021/12/25 06:24:14;;;;;;;;;;;25.90;99.90;;;;;;5052795;28;19909;-70
2021/12/25 06:26:40;;;;;;;;;;;25.90;99.90;;;;;;5052798;28;19909;-71
2021/12/25 06:29:07;;;;;;;;;;;25.80;99.90;;;;;;5052760;28;19909;-70
2021/12/25 06:31:34;;;;;;;;;;;25.80;99.90;;;;;;5052677;28;19932;-72
2021/12/25 06:34:01;;;;;;;;;;;25.80;99.90;;;;;;5052372;28;19917;-71
2021/12/25 06:36:27;;;;;;;;;;;25.80;99.90;;;;;;5052476;28;19916;-71
2021/12/25 06:38:54;;;;;;;;;;;25.80;99.90;;;;;;5052568;28;20371;-71
2021/12/25 06:41:20;;;;;;;;;;;25.70;99.90;;;;;;5052479;28;19908;-72
2021/12/25 06:43:47;;;;;;;;;;;25.70;99.90;;;;;;5052335;28;19995;-71
2021/12/25 06:46:14;;;;;;;;;;;25.70;99.90;;;;;;5052546;28;19913;-71
2021/12/25 06:48:41;;;;;;;;;;;25.80;99.90;;;;;;5052644;28;19915;-72
2021/12/25 06:51:12;;;;;;;;;;;25.80;99.90;;;;;;5052446;28;19955;-71
2021/12/25 06:53:38;;;;;;;;;;;25.70;99.90;;;;;;5052358;28;19917;-72
2021/12/25 06:56:05;;;;;;;;;;;25.60;99.90;;;;;;5052153;28;19999;-75
2021/12/25 06:58:32;;;;;;;;;;;25.50;99.90;;;;;;5052216;28;19909;-71
2021/12/25 07:00:59;;;;;;;;;;;25.50;99.90;;;;;;5052290;28;20420;-72
2021/12/25 07:03:25;;;;;;;;;;;25.40;99.90;;;;;;5052324;28;20355;-72
2021/12/25 07:05:52;;;;;;;;;;;25.50;99.90;;;;;;5051968;28;19996;-73
2021/12/25 07:08:19;;;;;;;;;;;25.50;99.90;;;;;;5052312;28;19909;-72
2021/12/25 07:10:45;;;;;;;;;;;25.40;99.90;;;;;;5052290;28;19928;-71
2021/12/25 07:13:17;;;;;;;;;;;25.40;99.90;;;;;;5052179;28;19984;-72
2021/12/25 07:15:44;;;;;;;;;;;25.40;99.90;;;;;;5052371;28;19912;-70
2021/12/25 07:18:11;;;;;;;;;;;25.50;99.90;;;;;;5054042;28;19955;-71
2021/12/25 07:20:38;;;;;;;;;;;25.50;99.90;;;;;;5056110;28;19982;-73
2021/12/25 07:23:04;;;;;;;;;;;25.50;99.90;;;;;;5056120;28;19912;-72
2021/12/25 07:25:31;;;;;;;;;;;25.40;99.90;;;;;;5056143;28;20398;-71
2021/12/25 07:27:58;;;;;;;;;;;25.30;99.90;;;;;;5055874;28;20457;-72
2021/12/25 07:30:24;;;;;;;;;;;25.20;99.90;;;;;;5055970;28;19940;-74
2021/12/25 07:32:51;;;;;;;;;;;25.10;99.90;;;;;;5056062;28;20360;-71
2021/12/25 07:35:18;;;;;;;;;;;25.10;99.90;;;;;;5056000;28;19913;-72
2021/12/25 07:37:45;;;;;;;;;;;25.10;99.90;;;;;;5055952;28;20008;-73
2021/12/25 07:40:12;;;;;;;;;;;25.10;99.90;;;;;;5055984;28;19909;-71
2021/12/25 07:42:38;;;;;;;;;;;25.10;99.90;;;;;;5055771;28;19932;-72
2021/12/25 07:45:07;;;;;;;;;;;25.10;99.90;;;;;;5055639;28;19915;-72
2021/12/25 07:47:35;;;;;;;;;;;25.10;99.90;;;;;;5055933;28;19962;-72
2021/12/25 07:50:03;;;;;;;;;;;25.20;99.90;;;;;;5055425;28;19932;-73
2021/12/25 07:52:30;;;;;;;;;;;25.20;99.90;;;;;;5055679;28;19917;-73
2021/12/25 07:54:56;;;;;;;;;;;25.20;99.90;;;;;;5055600;28;20359;-72
2021/12/25 07:57:23;;;;;;;;;;;25.10;99.90;;;;;;5055623;28;20439;-72
2021/12/25 07:59:50;;;;;;;;;;;25.10;99.90;;;;;;5055227;28;19908;-71
2021/12/25 08:02:17;;;;;;;;;;;25.10;99.90;;;;;;5055451;28;19908;-71
2021/12/25 08:04:43;;;;;;;;;;;25.00;99.90;;;;;;5055417;28;19915;-71
2021/12/25 08:07:10;;;;;;;;;;;25.00;99.90;;;;;;5055301;28;20006;-71
2021/12/25 08:09:38;;;;;;;;;;;25.00;99.90;;;;;;5054987;28;19920;-71
2021/12/25 08:12:05;;;;;;;;;;;25.00;99.90;;;;;;5054944;28;20425;-72
2021/12/25 08:14:33;;;;;;;;;;;24.90;99.90;;;;;;5055101;28;20324;-73
2021/12/25 08:17:01;;;;;;;;;;;24.80;99.90;;;;;;5055310;28;19916;-74
2021/12/25 08:19:28;;;;;;;;;;;24.70;99.90;;;;;;5055322;28;19940;-72
2021/12/25 08:21:54;;;;;;;;;;;24.70;99.90;;;;;;5054719;28;19913;-72
2021/12/25 08:24:22;;;;;;;;;;;24.80;99.90;;;;;;5055034;28;19919;-72
2021/12/25 08:26:49;;;;;;;;;;;24.70;99.90;;;;;;5054987;28;19915;-72
2021/12/25 08:29:16;;;;;;;;;;;24.80;99.90;;;;;;5054936;28;20012;-73
2021/12/25 08:31:43;;;;;;;;;;;24.80;99.90;;;;;;5054809;28;19964;-72
2021/12/25 08:34:10;;;;;;;;;;;24.70;99.90;;;;;;5054633;28;20370;-73
2021/12/25 08:36:36;;;;;;;;;;;24.70;99.90;;;;;;5054737;28;20359;-72
2021/12/25 08:39:07;;;;;;;;;;;24.60;99.90;;;;;;5054840;28;19913;-72
2021/12/25 08:41:34;;;;;;;;;;;24.60;99.90;;;;;;5054859;28;19908;-72
2021/12/25 08:44:08;;;;;;;;;;;24.60;99.90;;;;;;5054628;28;19962;-72
2021/12/25 08:47:16;;;;;;;;;;;24.60;99.90;;;;;;5054850;28;20271;-73
2021/12/25 08:49:25;;;;;;;;;;;24.60;99.90;;;;;;5054148;28;19915;-72
2021/12/25 08:51:52;;;;;;;;;;;24.60;99.90;;;;;;5054336;28;19916;-72
2021/12/25 08:54:19;;;;;;;;;;;24.60;99.90;;;;;;5054429;28;19963;-71
2021/12/25 08:56:45;;;;;;;;;;;24.60;99.90;;;;;;5054475;28;19916;-71
2021/12/25 08:59:12;;;;;;;;;;;24.60;99.90;;;;;;5054339;28;19909;-70
2021/12/25 09:01:39;;;;;;;;;;;24.50;99.90;;;;;;5054146;28;19931;-70
2021/12/25 09:04:06;;;;;;;;;;;24.60;99.90;;;;;;5054214;28;19956;-70
2021/12/25 09:06:33;;;;;;;;;;;24.50;99.90;;;;;;5054116;28;20275;-71
2021/12/25 09:09:00;;;;;;;;;;;24.50;99.90;;;;;;5054108;28;19913;-70
2021/12/25 09:11:26;;;;;;;;;;;24.50;99.90;;;;;;5053976;28;19921;-70
2021/12/25 09:13:53;;;;;;;;;;;24.50;99.90;;;;;;5053709;28;20435;-70
2021/12/25 09:16:20;;;;;;;;;;;24.50;99.90;;;;;;5053932;28;20283;-70
2021/12/25 09:18:47;;;;;;;;;;;24.50;99.90;;;;;;5053966;28;19909;-70
2021/12/25 09:21:13;;;;;;;;;;;24.50;99.90;;;;;;5054057;28;19916;-70
2021/12/25 09:23:40;;;;;;;;;;;24.50;99.90;;;;;;5054011;28;19909;-70
2021/12/25 09:26:07;;;;;;;;;;;24.60;99.90;;;;;;5053714;28;19909;-71
2021/12/25 09:28:34;;;;;;;;;;;24.50;99.90;;;;;;5053861;28;20363;-71
2021/12/25 09:31:00;;;;;;;;;;;24.50;99.90;;;;;;5053688;28;19962;-70
2021/12/25 09:33:27;;;;;;;;;;;24.50;99.90;;;;;;5053615;28;20330;-70
2021/12/25 09:35:53;;;;;;;;;;;24.40;99.90;;;;;;5053455;28;19908;-73
2021/12/25 09:38:20;;;;;;;;;;;24.40;99.90;;;;;;5053722;28;20347;-70
2021/12/25 09:40:47;;;;;;;;;;;24.50;99.90;;;;;;5053159;28;19954;-70
2021/12/25 09:43:17;;;;;;;;;;;24.40;99.90;;;;;;5053760;28;19909;-73
2021/12/25 09:45:43;;;;;;;;;;;24.40;99.90;;;;;;5053654;28;19912;-71
2021/12/25 09:48:10;;;;;;;;;;;24.40;99.90;;;;;;5053519;28;19916;-72
2021/12/25 09:50:37;;;;;;;;;;;24.40;99.90;;;;;;5053284;28;19909;-71
2021/12/25 09:53:11;;;;;;;;;;;24.40;99.90;;;;;;5053334;28;19931;-72
2021/12/25 09:55:42;;;;;;;;;;;24.30;99.90;;;;;;5053289;28;20360;-71
2021/12/25 09:58:08;;;;;;;;;;;24.30;99.90;;;;;;5053059;28;20672;-71
2021/12/25 10:00:36;;;;;;;;;;;24.30;99.90;;;;;;5053291;28;20390;-71
2021/12/25 10:03:03;;;;;;;;;;;24.30;99.90;;;;;;5053204;28;19915;-71
2021/12/25 10:05:34;;;;;;;;;;;24.30;99.90;;;;;;5053157;28;19909;-73
2021/12/25 10:08:02;;;;;;;;;;;24.30;99.90;;;;;;5052919;28;20348;-72
2021/12/25 10:10:40;;;;;;;;;;;24.30;99.90;;;;;;5052846;28;19921;-71
2021/12/25 10:13:21;;;;;;;;;;;24.20;99.90;;;;;;5052987;28;19916;-71
2021/12/25 10:15:48;;;;;;;;;;;24.20;99.90;;;;;;5052880;28;19962;-71
2021/12/25 10:18:15;;;;;;;;;;;24.20;99.90;;;;;;5052861;28;19917;-71
2021/12/25 10:20:41;;;;;;;;;;;24.20;99.90;;;;;;5052715;28;19963;-71
2021/12/25 10:23:14;;;;;;;;;;;24.20;99.90;;;;;;5052735;28;19909;-71
2021/12/25 10:25:46;;;;;;;;;;;24.20;99.90;;;;;;5052799;28;19996;-71
2021/12/25 10:28:14;;;;;;;;;;;24.10;99.90;;;;;;5052811;28;19908;-71
2021/12/25 10:30:44;;;;;;;;;;;24.10;99.90;;;;;;5052776;28;19944;-72
2021/12/25 10:33:26;;;;;;;;;;;24.10;99.90;;;;;;5052638;28;19916;-71
2021/12/25 10:35:53;;;;;;;;;;;24.10;99.90;;;;;;5052504;28;20429;-71
2021/12/25 10:38:22;;;;;;;;;;;24.00;99.90;;;;;;5052875;28;20378;-71
2021/12/25 10:40:48;;;;;;;;;;;24.00;99.90;;;;;;5052665;28;19917;-72
2021/12/25 10:43:22;;;;;;;;;;;24.10;99.90;;;;;;5052714;28;19941;-71
2021/12/25 10:45:59;;;;;;;;;;;24.00;99.90;;;;;;5084682;28;20394;-71
2021/12/25 10:48:28;;;;;;;;;;;24.00;99.90;;;;;;5052689;28;19963;-74
2021/12/25 10:50:55;;;;;;;;;;;24.00;99.90;;;;;;5052512;28;19959;-71
2021/12/25 10:53:27;;;;;;;;;;;24.00;99.90;;;;;;5051662;28;20015;-71
2021/12/25 10:56:03;;;;;;;;;;;24.00;99.90;;;;;;5052456;28;20323;-71
2021/12/25 10:58:30;;;;;;;;;;;24.00;99.90;;;;;;5052509;28;19909;-71
2021/12/25 11:00:58;;;;;;;;;;;23.90;99.90;;;;;;5052595;28;19909;-71
2021/12/25 11:03:27;;;;;;;;;;;23.90;99.90;;;;;;5052550;28;19913;-71
2021/12/25 11:05:54;;;;;;;;;;;24.00;99.90;;;;;;5052022;28;19913;-72
2021/12/25 11:08:22;;;;;;;;;;;23.90;99.90;;;;;;5052310;28;19909;-71
2021/12/25 11:10:49;;;;;;;;;;;23.90;99.90;;;;;;5052233;28;20383;-70
2021/12/25 11:13:18;;;;;;;;;;;23.80;99.90;;;;;;5052150;28;19921;-71
2021/12/25 11:15:45;;;;;;;;;;;23.90;99.90;;;;;;5052349;28;19967;-71
2021/12/25 11:18:13;;;;;;;;;;;23.80;99.90;;;;;;5084559;28;19916;-70
2021/12/25 11:20:40;;;;;;;;;;;23.80;99.90;;;;;;5052187;28;20251;-70
2021/12/25 11:23:09;;;;;;;;;;;23.80;99.90;;;;;;5052389;28;19992;-71
2021/12/25 11:25:37;;;;;;;;;;;23.80;99.90;;;;;;5052107;28;20000;-71
2021/12/25 11:28:06;;;;;;;;;;;23.80;99.90;;;;;;5052107;28;19915;-71
2021/12/25 11:30:34;;;;;;;;;;;23.80;99.90;;;;;;5052505;28;19909;-71
2021/12/25 11:33:01;;;;;;;;;;;23.80;99.90;;;;;;5052233;28;19924;-71
2021/12/25 11:35:28;;;;;;;;;;;23.80;99.90;;;;;;5052003;28;19933;-69
2021/12/25 11:37:56;;;;;;;;;;;23.80;99.90;;;;;;5051880;28;19913;-70
2021/12/25 11:40:25;;;;;;;;;;;23.70;99.90;;;;;;5052104;28;19908;-71
2021/12/25 11:42:57;;;;;;;;;;;23.70;99.90;;;;;;5052055;28;19908;-70
2021/12/25 11:45:29;;;;;;;;;;;23.80;99.90;;;;;;5052030;28;19915;-71
2021/12/25 11:47:58;;;;;;;;;;;23.70;99.90;;;;;;5051878;28;20407;-71
2021/12/25 11:50:42;;;;;;;;;;;23.70;99.90;;;;;;5051936;28;19913;-71
2021/12/25 11:53:41;;;;;;;;;;;23.70;99.90;;;;;;5051994;28;20003;-73
2021/12/25 11:56:21;;;;;;;;;;;23.70;99.90;;;;;;5053386;28;19909;-71
2021/12/25 11:58:58;;;;;;;;;;;23.70;99.90;;;;;;5051917;28;20344;-71
2021/12/25 12:01:28;;;;;;;;;;;23.60;99.90;;;;;;5051973;28;19913;-71
2021/12/25 12:04:12;;;;;;;;;;;23.60;99.90;;;;;;5052905;28;19958;-70
2021/12/25 12:06:47;;;;;;;;;;;23.60;99.90;;;;;;5055506;28;19909;-71
2021/12/25 12:09:19;;;;;;;;;;;23.60;99.90;;;;;;5055370;28;19912;-71
2021/12/25 12:11:47;;;;;;;;;;;23.50;99.90;;;;;;5055358;28;19928;-70
2021/12/25 12:14:20;;;;;;;;;;;23.50;99.90;;;;;;5055179;28;19921;-71
2021/12/25 12:16:50;;;;;;;;;;;23.50;99.90;;;;;;5055152;28;20000;-71
2021/12/25 12:19:36;;;;;;;;;;;23.50;99.90;;;;;;5054991;28;19909;-71
2021/12/25 12:27:37;;;;;;;;;;;23.50;99.90;;;;;;5055009;28;19908;-70
2021/12/25 12:30:11;;;;;;;;;;;23.40;99.90;;;;;;5054688;28;19932;-72
2021/12/25 12:32:45;;;;;;;;;;;23.40;99.90;;;;;;5054748;28;19967;-72
2021/12/25 12:35:41;;;;;;;;;;;23.40;99.90;;;;;;5054884;28;20019;-71
2021/12/25 12:38:26;;;;;;;;;;;23.40;99.90;;;;;;5049730;28;19913;-71
2021/12/25 12:41:11;;;;;;;;;;;23.40;99.90;;;;;;5054839;28;19909;-71
2021/12/25 12:44:10;;;;;;;;;;;23.40;99.90;;;;;;5054636;28;20089;-71
2021/12/25 12:46:50;;;;;;;;;;;23.40;99.90;;;;;;5042360;28;19908;-72
2021/12/25 12:49:18;;;;;;;;;;;23.30;99.90;;;;;;5054594;28;20256;-71
2021/12/25 12:51:46;;;;;;;;;;;23.30;99.90;;;;;;5054952;28;20397;-71
2021/12/25 12:54:39;;;;;;;;;;;23.30;99.90;;;;;;5054493;28;20023;-71
2021/12/25 12:57:06;;;;;;;;;;;23.30;99.90;;;;;;5053287;28;19988;-71
2021/12/25 12:59:58;;;;;;;;;;;23.30;99.90;;;;;;5054304;28;19909;-71
2021/12/25 13:02:26;;;;;;;;;;;23.30;99.90;;;;;;5053126;28;19959;-71
2021/12/25 13:04:58;;;;;;;;;;;23.30;99.90;;;;;;5054171;28;19908;-72
2021/12/25 13:07:25;;;;;;;;;;;23.30;99.90;;;;;;5054212;28;19912;-72
2021/12/25 13:09:58;;;;;;;;;;;23.30;99.90;;;;;;5053771;28;20356;-71
2021/12/25 13:12:43;;;;;;;;;;;23.30;99.90;;;;;;5054166;28;19916;-71
2021/12/25 13:15:13;;;;;;;;;;;23.20;99.90;;;;;;5053356;28;20043;-71
2021/12/25 13:18:06;;;;;;;;;;;23.20;99.90;;;;;;5054065;28;19916;-71
2021/12/25 13:20:52;;;;;;;;;;;23.20;99.90;;;;;;5052730;28;19917;-71
2021/12/25 13:23:23;;;;;;;;;;;23.10;99.90;;;;;;5054015;28;19909;-71
2021/12/25 13:25:52;;;;;;;;;;;23.20;99.90;;;;;;5053834;28;19913;-71
2021/12/25 13:28:21;;;;;;;;;;;23.10;99.90;;;;;;5053842;28;19909;-70
2021/12/25 13:30:57;;;;;;;;;;;23.20;99.90;;;;;;5053718;28;19909;-71
2021/12/25 13:33:25;;;;;;;;;;;23.10;99.90;;;;;;5053794;28;20299;-71
2021/12/25 13:36:04;;;;;;;;;;;23.10;99.90;;;;;;5053541;28;19909;-71
2021/12/25 13:38:49;;;;;;;;;;;23.10;99.90;;;;;;5053626;28;19909;-71
2021/12/25 13:41:27;;;;;;;;;;;23.10;99.90;;;;;;5053574;28;19909;-72
2021/12/25 13:44:07;;;;;;;;;;;23.10;99.90;;;;;;5053533;28;20367;-74
2021/12/25 13:46:57;;;;;;;;;;;23.10;99.90;;;;;;5053508;28;20267;-71
2021/12/25 13:49:31;;;;;;;;;;;23.10;99.90;;;;;;5050003;28;19909;-71
2021/12/25 13:51:58;;;;;;;;;;;23.10;99.90;;;;;;5053327;28;20304;-71
2021/12/25 13:54:25;;;;;;;;;;;23.10;99.90;;;;;;5053355;28;19997;-71
2021/12/25 13:56:53;;;;;;;;;;;23.10;99.90;;;;;;5053278;28;19935;-71
2021/12/25 13:59:20;;;;;;;;;;;23.00;99.90;;;;;;5053216;28;19909;-72
2021/12/25 14:01:55;;;;;;;;;;;23.00;99.90;;;;;;5052790;28;20352;-72
2021/12/25 14:04:22;;;;;;;;;;;23.00;99.90;;;;;;5053090;28;20003;-73
2021/12/25 14:06:49;;;;;;;;;;;23.00;99.90;;;;;;5053059;28;19915;-71
2021/12/25 14:09:15;;;;;;;;;;;23.10;99.90;;;;;;5052966;28;19910;-72
2021/12/25 14:11:56;;;;;;;;;;;23.10;99.90;;;;;;5052915;28;19970;-71
2021/12/25 14:14:27;;;;;;;;;;;23.10;99.90;;;;;;5052128;28;20208;-71
2021/12/25 14:16:54;;;;;;;;;;;23.10;99.90;;;;;;5052836;28;19913;-71
2021/12/25 14:19:24;;;;;;;;;;;23.10;99.90;;;;;;5052748;28;19909;-71
2021/12/25 14:22:05;;;;;;;;;;;23.10;99.90;;;;;;5052609;28;19955;-71
2021/12/25 14:24:42;;;;;;;;;;;23.00;99.90;;;;;;5052905;28;20004;-71
2021/12/25 14:27:13;;;;;;;;;;;22.90;99.90;;;;;;5052729;28;19952;-71
2021/12/25 14:29:40;;;;;;;;;;;22.90;99.90;;;;;;5052702;28;19952;-71
2021/12/25 14:32:26;;;;;;;;;;;22.80;99.90;;;;;;5052587;28;20364;-72
2021/12/25 14:34:54;;;;;;;;;;;22.80;99.90;;;;;;5052285;28;19974;-71
2021/12/25 14:37:36;;;;;;;;;;;22.70;99.90;;;;;;5052541;28;19909;-70
2021/12/25 14:40:09;;;;;;;;;;;22.70;99.90;;;;;;5052421;28;19909;-71
2021/12/25 14:42:38;;;;;;;;;;;22.70;99.90;;;;;;5052662;28;20372;-71
2021/12/25 14:45:05;;;;;;;;;;;22.70;99.90;;;;;;5052602;28;19944;-72
2021/12/25 14:47:32;;;;;;;;;;;22.60;99.90;;;;;;5052399;28;19912;-72
2021/12/25 14:49:59;;;;;;;;;;;22.70;99.90;;;;;;5052346;28;19995;-72
2021/12/25 14:52:25;;;;;;;;;;;22.70;99.90;;;;;;5052318;28;19913;-71
2021/12/25 14:54:52;;;;;;;;;;;22.70;99.90;;;;;;5052393;28;19916;-72
2021/12/25 14:57:25;;;;;;;;;;;22.60;99.90;;;;;;5052489;28;20371;-72
2021/12/25 14:59:52;;;;;;;;;;;22.70;99.90;;;;;;5052244;28;20311;-71
2021/12/25 15:02:20;;;;;;;;;;;22.70;99.90;;;;;;5052434;28;20000;-72
2021/12/25 15:04:48;;;;;;;;;;;22.80;99.90;;;;;;5052300;28;19932;-72
2021/12/25 15:07:15;;;;;;;;;;;22.80;99.90;;;;;;5052318;28;19916;-71
2021/12/25 15:09:44;;;;;;;;;;;22.70;99.90;;;;;;5052192;28;19912;-74
2021/12/25 15:12:15;;;;;;;;;;;22.80;99.90;;;;;;5052144;28;19917;-71
2021/12/25 15:14:47;;;;;;;;;;;22.80;99.90;;;;;;5052361;28;19939;-74
2021/12/25 15:17:16;;;;;;;;;;;22.90;99.90;;;;;;5052355;28;19936;-74
2021/12/25 15:19:44;;;;;;;;;;;22.80;99.90;;;;;;5052155;28;19909;-74
2021/12/25 15:22:13;;;;;;;;;;;22.80;99.90;;;;;;5052368;28;19908;-74
2021/12/25 15:25:00;;;;;;;;;;;22.90;99.90;;;;;;5052084;28;19909;-72
2021/12/25 15:27:30;;;;;;;;;;;22.90;99.90;;;;;;5051846;28;19909;-74
2021/12/25 15:29:59;;;;;;;;;;;22.80;99.90;;;;;;5051960;28;19916;-73
2021/12/25 15:32:37;;;;;;;;;;;22.70;99.90;;;;;;5051897;28;20429;-72
2021/12/25 15:35:07;;;;;;;;;;;22.70;99.90;;;;;;5052216;28;19909;-75
2021/12/25 15:37:34;;;;;;;;;;;22.60;99.90;;;;;;5052073;28;19909;-75
2021/12/25 15:40:06;;;;;;;;;;;22.60;99.90;;;;;;5055116;28;19992;-72
2021/12/25 15:42:33;;;;;;;;;;;22.50;99.90;;;;;;5055975;28;20332;-73
2021/12/25 15:44:59;;;;;;;;;;;22.50;99.90;;;;;;5055830;28;20360;-74